createdAt,value
2023-05-10T00:00:07.349Z,39.40
2023-05-10T00:02:41.912Z,39.41
2023-05-10T00:05:10.504Z,39.51
2023-05-10T00:07:37.880Z,39.38
2023-05-10T00:10:05.656Z,39.65
2023-05-10T00:12:33.232Z,39.57
2023-05-10T00:15:00.591Z,39.86
2023-05-10T00:17:27.893Z,40.06
2023-05-10T00:19:55.564Z,40.13
2023-05-10T00:22:22.957Z,39.73
2023-05-10T00:24:50.204Z,40.26
2023-05-10T00:27:17.625Z,40.11
2023-05-10T00:29:45.121Z,39.98
2023-05-10T00:32:12.491Z,40.33
2023-05-10T00:34:39.811Z,40.20
2023-05-10T00:37:07.050Z,40.10
2023-05-10T00:39:34.358Z,40.16
2023-05-10T00:42:01.821Z,39.75
2023-05-10T00:44:29.682Z,39.76
2023-05-10T00:46:57.458Z,39.97
2023-05-10T00:49:24.860Z,40.11
2023-05-10T00:51:52.474Z,40.01
2023-05-10T00:54:19.846Z,40.15
2023-05-10T00:56:50.094Z,40.40
2023-05-10T00:59:18.326Z,40.32
2023-05-10T01:01:46.717Z,40.48
2023-05-10T01:04:15.192Z,40.58
2023-05-10T01:06:43.663Z,40.63
2023-05-10T01:09:12.973Z,40.50
2023-05-10T01:11:41.288Z,40.89
2023-05-10T01:14:09.327Z,40.75
2023-05-10T01:16:41.993Z,41.13
2023-05-10T01:19:27.226Z,40.96
2023-05-10T01:22:06.240Z,41.12
2023-05-10T01:25:10.717Z,41.35
2023-05-10T01:27:53.183Z,41.12
2023-05-10T01:30:54.605Z,41.51
2023-05-10T01:33:22.057Z,41.19
2023-05-10T01:36:03.623Z,41.79
2023-05-10T01:38:51.873Z,41.72
2023-05-10T01:41:33.023Z,42.42
2023-05-10T01:44:06.879Z,42.09
2023-05-10T01:46:39.684Z,42.24
2023-05-10T01:49:15.306Z,41.98
2023-05-10T01:51:50.173Z,42.06
2023-05-10T01:54:20.603Z,41.96
2023-05-10T01:56:54.223Z,41.84
2023-05-10T01:59:23.531Z,41.83
2023-05-10T02:01:53.516Z,42.16
2023-05-10T02:04:23.223Z,42.66
2023-05-10T02:06:52.685Z,42.51
2023-05-10T02:09:22.012Z,42.50
2023-05-10T02:11:51.409Z,43.09
2023-05-10T02:14:20.226Z,42.92
2023-05-10T02:16:49.360Z,43.45
2023-05-10T02:19:18.492Z,43.06
2023-05-10T02:22:07.006Z,43.50
2023-05-10T02:24:54.704Z,43.40
2023-05-10T02:27:23.167Z,43.53
2023-05-10T02:29:52.648Z,43.40
2023-05-10T02:32:22.424Z,43.15
2023-05-10T02:34:53.131Z,43.52
2023-05-10T02:37:21.876Z,43.56
2023-05-10T02:39:55.139Z,43.57
2023-05-10T02:42:27.842Z,43.13
2023-05-10T02:45:02.419Z,43.05
2023-05-10T02:47:34.907Z,43.27
2023-05-10T02:50:02.601Z,42.94
2023-05-10T02:52:41.046Z,42.39
2023-05-10T02:55:12.442Z,42.51
2023-05-10T02:57:44.622Z,42.47
2023-05-10T03:00:12.506Z,42.51
2023-05-10T03:02:39.932Z,42.46
2023-05-10T03:05:07.775Z,42.53
2023-05-10T03:07:35.736Z,42.21
2023-05-10T03:10:04.502Z,42.24
2023-05-10T03:13:04.557Z,42.52
2023-05-10T03:15:38.714Z,42.30
2023-05-10T03:18:14.336Z,43.00
2023-05-10T03:20:49.802Z,42.62
2023-05-10T03:23:51.937Z,42.60
2023-05-10T03:26:24.906Z,42.05
2023-05-10T03:28:55.767Z,42.84
2023-05-10T03:31:23.727Z,42.68
2023-05-10T03:33:53.127Z,42.55
2023-05-10T03:36:25.468Z,42.25
2023-05-10T03:38:53.048Z,42.29
2023-05-10T03:41:20.521Z,42.75
2023-05-10T03:43:48.685Z,42.97
2023-05-10T03:46:16.413Z,42.71
2023-05-10T03:48:44.191Z,42.50
2023-05-10T03:51:11.708Z,42.44
2023-05-10T03:53:40.422Z,42.57
2023-05-10T03:56:07.963Z,42.21
2023-05-10T03:58:35.892Z,41.89
2023-05-10T04:01:03.558Z,42.11
2023-05-10T04:03:31.305Z,42.35
2023-05-10T04:06:03.177Z,42.52
2023-05-10T04:08:30.943Z,42.36
2023-05-10T04:11:09.261Z,42.66
2023-05-10T04:13:55.145Z,42.12
2023-05-10T04:16:22.471Z,41.83
2023-05-10T04:18:49.923Z,42.13
2023-05-10T04:21:35.770Z,41.92
2023-05-10T04:24:03.161Z,42.28
2023-05-10T04:26:30.787Z,41.68
2023-05-10T04:28:58.045Z,42.00
2023-05-10T04:31:25.337Z,41.83
2023-05-10T04:33:52.765Z,41.37
2023-05-10T04:36:20.139Z,41.79
2023-05-10T04:38:47.768Z,41.63
2023-05-10T04:41:15.104Z,42.30
2023-05-10T04:43:42.430Z,41.61
2023-05-10T04:46:09.810Z,41.06
2023-05-10T04:48:37.295Z,40.62
2023-05-10T04:51:05.239Z,40.75
2023-05-10T04:53:33.588Z,40.60
2023-05-10T04:56:02.388Z,40.88
2023-05-10T04:58:30.257Z,41.07
2023-05-10T05:00:58.152Z,40.50
2023-05-10T05:03:26.078Z,40.99
2023-05-10T05:06:12.484Z,40.47
2023-05-10T05:08:40.031Z,39.92
2023-05-10T05:11:07.788Z,40.12
2023-05-10T05:13:37.003Z,40.10
2023-05-10T05:16:07.235Z,40.03
2023-05-10T05:21:37.818Z,39.65
2023-05-10T05:24:05.710Z,40.43
2023-05-10T05:26:33.052Z,40.26
2023-05-10T05:29:00.669Z,39.48
2023-05-10T05:31:28.610Z,39.97
2023-05-10T05:33:58.066Z,39.45
2023-05-10T05:36:26.136Z,40.12
2023-05-10T05:38:54.784Z,40.03
2023-05-10T05:41:23.644Z,39.42
2023-05-10T05:44:02.388Z,39.67
2023-05-10T05:46:32.890Z,39.95
2023-05-10T05:49:01.562Z,40.23
2023-05-10T05:51:32.494Z,39.78
2023-05-10T05:54:00.511Z,39.84
2023-05-10T05:56:28.470Z,40.08
2023-05-10T05:58:56.540Z,40.18
2023-05-10T06:01:24.811Z,39.92
2023-05-10T06:03:53.604Z,39.38
2023-05-10T06:06:21.405Z,39.22
2023-05-10T06:08:48.893Z,38.81
2023-05-10T06:11:16.724Z,39.06
2023-05-10T06:13:44.268Z,38.88
2023-05-10T06:16:12.036Z,38.71
2023-05-10T06:18:39.556Z,39.03
2023-05-10T06:21:08.030Z,38.88
2023-05-10T06:23:38.450Z,39.70
2023-05-10T06:26:10.233Z,39.50
2023-05-10T06:28:41.380Z,38.92
2023-05-10T06:31:12.979Z,38.71
2023-05-10T06:33:42.296Z,39.11
2023-05-10T06:36:10.719Z,38.83
2023-05-10T06:38:38.971Z,39.00
2023-05-10T06:41:10.728Z,39.24
2023-05-10T06:43:44.812Z,39.32
2023-05-10T06:46:12.248Z,39.51
2023-05-10T06:48:40.333Z,39.70
2023-05-10T06:51:08.119Z,39.74
2023-05-10T06:53:35.851Z,39.70
2023-05-10T06:56:05.001Z,39.67
2023-05-10T06:58:33.921Z,39.92
2023-05-10T07:01:05.571Z,41.21
2023-05-10T07:03:33.492Z,40.34
2023-05-10T07:06:05.169Z,40.85
2023-05-10T07:08:34.746Z,41.41
2023-05-10T07:11:11.821Z,42.76
2023-05-10T07:13:42.752Z,43.09
2023-05-10T07:16:11.747Z,44.00
2023-05-10T07:18:40.097Z,44.62
2023-05-10T07:21:08.852Z,44.37
2023-05-10T07:23:36.496Z,44.76
2023-05-10T07:26:10.427Z,44.63
2023-05-10T07:28:46.397Z,44.12
2023-05-10T07:31:16.986Z,44.42
2023-05-10T07:33:51.144Z,44.69
2023-05-10T07:36:19.047Z,44.92
2023-05-10T07:38:46.822Z,43.52
2023-05-10T07:41:16.350Z,42.78
2023-05-10T07:43:46.816Z,42.34
2023-05-10T07:46:14.690Z,42.81
2023-05-10T07:48:42.567Z,41.21
2023-05-10T07:51:11.253Z,40.99
2023-05-10T07:53:39.217Z,41.16
2023-05-10T07:56:30.834Z,40.12
2023-05-10T07:59:16.628Z,40.28
2023-05-10T08:01:44.751Z,39.28
2023-05-10T08:04:13.100Z,39.62
2023-05-10T08:06:43.139Z,39.26
2023-05-10T08:09:10.929Z,39.50
2023-05-10T08:11:38.427Z,39.15
2023-05-10T08:14:08.673Z,39.19
2023-05-10T08:16:36.272Z,39.02
2023-05-10T08:19:03.889Z,39.02
2023-05-10T08:21:32.543Z,39.43
2023-05-10T08:24:00.295Z,39.00
2023-05-10T08:26:27.920Z,38.77
2023-05-10T08:28:55.673Z,39.61
2023-05-10T08:31:25.716Z,39.25
2023-05-10T08:33:55.527Z,39.50
2023-05-10T08:36:25.642Z,39.17
2023-05-10T08:38:56.533Z,39.43
2023-05-10T08:41:26.856Z,39.21
2023-05-10T08:43:55.810Z,39.66
2023-05-10T08:46:24.642Z,39.16
2023-05-10T08:48:55.670Z,39.07
2023-05-10T08:51:28.707Z,38.94
2023-05-10T08:53:56.942Z,38.89
2023-05-10T08:56:27.335Z,38.92
2023-05-10T08:58:54.934Z,38.43
2023-05-10T09:01:23.160Z,38.44
2023-05-10T09:03:52.363Z,38.24
2023-05-10T09:06:20.390Z,37.87
2023-05-10T09:08:51.808Z,38.03
2023-05-10T09:11:25.557Z,37.92
2023-05-10T09:13:54.136Z,38.58
2023-05-10T09:16:23.255Z,38.06
2023-05-10T09:18:55.839Z,37.98
2023-05-10T09:21:24.088Z,38.21
2023-05-10T09:23:52.370Z,38.55
2023-05-10T09:26:24.344Z,39.13
2023-05-10T09:28:54.932Z,38.55
2023-05-10T09:31:23.693Z,38.33
2023-05-10T09:33:55.119Z,37.78
2023-05-10T09:36:23.638Z,37.94
2023-05-10T09:38:54.381Z,37.55
2023-05-10T09:41:43.723Z,38.02
2023-05-10T09:44:12.088Z,37.79
2023-05-10T09:46:39.772Z,37.91
2023-05-10T09:49:08.344Z,37.77
2023-05-10T09:51:36.944Z,37.67
2023-05-10T09:54:17.716Z,37.66
2023-05-10T09:56:49.182Z,37.58
2023-05-10T09:59:20.849Z,37.80
2023-05-10T10:01:53.695Z,37.57
2023-05-10T10:04:34.979Z,37.81
2023-05-10T10:07:22.315Z,38.07
2023-05-10T10:09:50.171Z,38.23
2023-05-10T10:12:22.250Z,38.24
2023-05-10T10:14:51.867Z,37.99
2023-05-10T10:17:25.357Z,38.13
2023-05-10T10:19:52.827Z,37.74
2023-05-10T10:22:20.351Z,37.72
2023-05-10T10:24:50.420Z,37.40
2023-05-10T10:27:22.490Z,37.24
2023-05-10T10:30:29.121Z,38.34
2023-05-10T10:33:42.356Z,36.68
2023-05-10T10:36:20.142Z,36.87
2023-05-10T10:39:06.039Z,36.46
2023-05-10T10:41:38.409Z,35.48
2023-05-10T10:44:39.647Z,35.54
2023-05-10T10:47:24.453Z,35.92
2023-05-10T10:50:05.393Z,36.15
2023-05-10T10:52:35.806Z,35.95
2023-05-10T10:55:11.795Z,36.40
2023-05-10T10:58:05.680Z,36.39
2023-05-10T11:00:42.249Z,37.48
2023-05-10T11:03:20.122Z,36.35
2023-05-10T11:05:48.488Z,36.67
2023-05-10T11:08:43.167Z,37.77
2023-05-10T11:11:11.192Z,37.61
2023-05-10T11:13:40.123Z,37.15
2023-05-10T11:16:21.100Z,37.61
2023-05-10T11:18:59.323Z,36.23
2023-05-10T11:21:27.452Z,36.87
2023-05-10T11:23:59.829Z,37.17
2023-05-10T11:26:32.785Z,36.83
2023-05-10T11:29:03.475Z,36.76
2023-05-10T11:31:31.170Z,36.53
2023-05-10T11:33:59.600Z,36.26
2023-05-10T11:36:30.458Z,37.14
2023-05-10T11:38:58.593Z,36.70
2023-05-10T11:41:29.925Z,36.81
2023-05-10T11:44:00.188Z,36.50
2023-05-10T11:46:30.248Z,37.01
2023-05-10T11:49:03.165Z,36.01
2023-05-10T11:51:33.900Z,35.91
2023-05-10T11:54:01.487Z,37.02
2023-05-10T11:56:29.875Z,36.48
2023-05-10T11:58:58.672Z,37.35
2023-05-10T12:01:27.731Z,37.74
2023-05-10T12:03:59.906Z,37.31
2023-05-10T12:06:30.358Z,36.48
2023-05-10T12:08:58.136Z,36.10
2023-05-10T12:11:27.782Z,35.84
2023-05-10T12:13:56.413Z,36.33
2023-05-10T12:16:30.311Z,37.17
2023-05-10T12:18:59.818Z,36.79
2023-05-10T12:21:31.801Z,36.72
2023-05-10T12:24:06.689Z,36.81
2023-05-10T12:26:34.030Z,36.87
2023-05-10T12:29:19.278Z,35.56
2023-05-10T12:31:56.148Z,35.97
2023-05-10T12:34:27.853Z,36.93
2023-05-10T12:36:55.994Z,36.38
2023-05-10T12:39:23.576Z,36.57
2023-05-10T12:41:51.019Z,36.61
2023-05-10T12:44:18.968Z,36.98
2023-05-10T12:46:46.260Z,36.62
2023-05-10T12:49:13.553Z,36.79
2023-05-10T12:51:41.049Z,36.33
2023-05-10T12:54:08.374Z,36.24
2023-05-10T12:59:20.517Z,36.56
2023-05-10T13:01:48.017Z,36.38
2023-05-10T13:04:15.463Z,36.70
2023-05-10T13:06:42.989Z,36.65
2023-05-10T13:09:10.252Z,37.24
2023-05-10T13:11:38.014Z,36.73
2023-05-10T13:14:05.263Z,36.96
2023-05-10T13:16:32.883Z,36.95
2023-05-10T13:19:19.164Z,37.16
2023-05-10T13:21:46.588Z,37.36
2023-05-10T13:24:17.053Z,37.51
2023-05-10T13:26:44.825Z,37.73
2023-05-10T13:29:12.194Z,37.52
2023-05-10T13:31:39.472Z,37.70
2023-05-10T13:34:07.421Z,37.88
2023-05-10T13:36:34.624Z,38.12
2023-05-10T13:39:04.099Z,38.02
2023-05-10T13:41:31.379Z,38.08
2023-05-10T13:43:58.814Z,38.30
2023-05-10T13:46:26.263Z,38.08
2023-05-10T13:48:53.897Z,38.88
2023-05-10T13:51:21.353Z,38.71
2023-05-10T13:53:48.766Z,39.26
2023-05-10T13:56:41.174Z,39.72
2023-05-10T13:59:09.046Z,39.92
2023-05-10T14:01:36.446Z,40.07
2023-05-10T14:04:04.796Z,40.72
2023-05-10T14:06:32.173Z,41.53
2023-05-10T14:08:59.600Z,42.61
2023-05-10T14:11:26.987Z,43.32
2023-05-10T14:13:54.401Z,45.04
2023-05-10T14:16:22.242Z,45.67
2023-05-10T14:18:49.751Z,46.56
2023-05-10T14:21:16.991Z,48.64
2023-05-10T14:23:44.254Z,49.58
2023-05-10T14:26:11.618Z,51.22
2023-05-10T14:28:38.904Z,51.41
2023-05-10T14:31:06.722Z,51.15
2023-05-10T14:33:34.077Z,52.42
2023-05-10T14:36:01.312Z,52.68
2023-05-10T14:38:29.104Z,52.89
2023-05-10T14:40:56.497Z,52.78
2023-05-10T14:43:23.787Z,52.47
2023-05-10T14:45:51.231Z,53.35
2023-05-10T14:48:18.769Z,54.00
2023-05-10T14:50:46.676Z,53.66
2023-05-10T14:53:38.079Z,55.21
2023-05-10T14:56:05.674Z,54.39
2023-05-10T14:58:34.236Z,54.93
2023-05-10T15:01:02.094Z,55.23
2023-05-10T15:03:30.328Z,55.28
2023-05-10T15:05:59.148Z,54.85
2023-05-10T15:08:26.604Z,54.76
2023-05-10T15:10:56.701Z,54.27
2023-05-10T15:13:42.699Z,53.77
2023-05-10T15:16:10.180Z,54.86
2023-05-10T15:18:37.531Z,55.47
2023-05-10T15:21:04.836Z,57.34
2023-05-10T15:23:33.232Z,58.66
2023-05-10T15:26:01.733Z,61.05
2023-05-10T15:28:29.035Z,61.85
2023-05-10T15:30:57.614Z,63.20
2023-05-10T15:33:25.684Z,63.27
2023-05-10T15:35:54.889Z,64.23
2023-05-10T15:38:22.173Z,65.25
2023-05-10T15:40:49.611Z,67.17
2023-05-10T15:46:01.824Z,69.10
2023-05-10T15:48:29.415Z,68.60
2023-05-10T15:50:57.070Z,71.45
2023-05-10T15:53:24.412Z,69.24
2023-05-10T15:55:51.976Z,70.66
2023-05-10T15:58:19.894Z,70.25
2023-05-10T16:00:47.371Z,71.29
2023-05-10T16:03:14.656Z,72.15
2023-05-10T16:05:42.036Z,72.10
2023-05-10T16:08:09.396Z,72.50
2023-05-10T16:10:37.150Z,74.04
2023-05-10T16:13:04.761Z,73.36
2023-05-10T16:15:50.723Z,72.64
2023-05-10T16:18:18.310Z,71.24
2023-05-10T16:20:45.963Z,70.99
2023-05-10T16:23:15.306Z,71.17
2023-05-10T16:25:42.772Z,72.17
2023-05-10T16:28:10.074Z,72.17
2023-05-10T16:30:37.870Z,72.26
2023-05-10T16:33:05.533Z,72.25
2023-05-10T16:35:33.004Z,72.31
2023-05-10T16:38:00.675Z,72.71
2023-05-10T16:40:28.014Z,73.42
2023-05-10T16:42:55.407Z,72.96
2023-05-10T16:45:23.012Z,72.75
2023-05-10T16:47:50.358Z,72.44
2023-05-10T16:50:17.663Z,73.23
2023-05-10T16:52:45.074Z,73.24
2023-05-10T16:55:12.522Z,74.09
2023-05-10T16:57:39.912Z,73.79
2023-05-10T17:00:08.813Z,74.47
2023-05-10T17:02:36.370Z,74.56
2023-05-10T17:05:04.876Z,74.53
2023-05-10T17:07:32.386Z,74.52
2023-05-10T17:09:59.786Z,74.42
2023-05-10T17:12:27.252Z,74.38
2023-05-10T17:14:54.594Z,75.07
2023-05-10T17:17:22.231Z,75.90
2023-05-10T17:19:49.754Z,75.73
2023-05-10T17:22:17.173Z,75.90
2023-05-10T17:24:45.920Z,76.45
2023-05-10T17:27:14.107Z,76.18
2023-05-10T17:29:41.335Z,75.76
2023-05-10T17:32:09.695Z,75.93
2023-05-10T17:34:37.736Z,75.49
2023-05-10T17:37:05.333Z,75.43
2023-05-10T17:39:51.159Z,75.81
2023-05-10T17:42:19.679Z,76.15
2023-05-10T17:44:47.036Z,75.74
2023-05-10T17:47:14.388Z,75.67
2023-05-10T17:49:41.716Z,75.89
2023-05-10T17:52:09.035Z,76.33
2023-05-10T17:54:36.450Z,76.90
2023-05-10T17:57:04.039Z,77.51
2023-05-10T17:59:31.355Z,77.63
2023-05-10T18:01:58.697Z,78.27
2023-05-10T18:04:26.450Z,77.72
2023-05-10T18:07:01.373Z,78.50
2023-05-10T18:09:31.972Z,78.05
2023-05-10T18:12:01.063Z,78.15
2023-05-10T18:14:39.570Z,78.80
2023-05-10T18:17:09.976Z,78.17
2023-05-10T18:19:37.592Z,78.57
2023-05-10T18:22:05.554Z,78.47
2023-05-10T18:27:04.824Z,79.08
2023-05-10T18:29:32.176Z,78.85
2023-05-10T18:31:59.511Z,79.09
2023-05-10T18:34:27.150Z,79.10
2023-05-10T18:36:54.740Z,79.06
2023-05-10T18:39:22.170Z,78.65
2023-05-10T18:41:50.456Z,78.83
2023-05-10T18:44:19.276Z,79.48
2023-05-10T18:46:46.755Z,79.51
2023-05-10T18:49:14.190Z,79.14
2023-05-10T18:51:41.530Z,78.73
2023-05-10T18:54:08.906Z,79.16
2023-05-10T18:56:36.842Z,78.97
2023-05-10T18:59:04.250Z,78.55
2023-05-10T19:01:31.576Z,78.66
2023-05-10T19:03:59.210Z,78.68
2023-05-10T19:06:26.606Z,78.62
2023-05-10T19:08:53.958Z,78.87
2023-05-10T19:11:22.543Z,78.89
2023-05-10T19:13:49.898Z,78.72
2023-05-10T19:16:23.402Z,78.68
2023-05-10T19:18:51.546Z,78.49
2023-05-10T19:21:19.004Z,78.75
2023-05-10T19:23:48.646Z,78.57
2023-05-10T19:26:15.986Z,78.72
2023-05-10T19:28:43.275Z,78.61
2023-05-10T19:31:11.216Z,78.85
2023-05-10T19:33:38.524Z,80.08
2023-05-10T19:36:24.076Z,79.13
2023-05-10T19:41:35.869Z,78.84
2023-05-10T19:44:03.648Z,78.74
2023-05-10T19:46:31.692Z,79.43
2023-05-10T19:48:58.988Z,78.99
2023-05-10T19:51:26.320Z,78.81
2023-05-10T19:53:53.712Z,78.97
2023-05-10T19:56:21.748Z,79.16
2023-05-10T19:58:49.041Z,79.72
2023-05-10T20:01:35.483Z,80.15
2023-05-10T20:04:02.943Z,79.59
2023-05-10T20:06:30.340Z,79.56
2023-05-10T20:08:57.731Z,79.54
2023-05-10T20:11:25.071Z,79.17
2023-05-10T20:13:53.170Z,79.37
2023-05-10T20:16:20.437Z,79.43
2023-05-10T20:18:47.725Z,79.75
2023-05-10T20:21:15.258Z,80.65
2023-05-10T20:23:42.714Z,80.77
2023-05-10T20:26:09.992Z,81.17
2023-05-10T20:28:37.518Z,81.16
2023-05-10T20:31:23.158Z,80.72
2023-05-10T20:33:50.479Z,80.50
2023-05-10T20:36:17.823Z,80.07
2023-05-10T20:38:45.102Z,79.98
2023-05-10T20:41:12.405Z,80.32
2023-05-10T20:43:39.654Z,80.70
2023-05-10T20:46:07.349Z,80.47
2023-05-10T20:48:34.868Z,80.84
2023-05-10T20:51:02.761Z,80.79
2023-05-10T20:53:30.208Z,80.66
2023-05-10T20:55:57.472Z,80.97
2023-05-10T20:58:24.981Z,80.71
2023-05-10T21:00:52.382Z,80.59
2023-05-10T21:03:19.648Z,80.77
2023-05-10T21:05:46.960Z,81.46
2023-05-10T21:08:14.374Z,81.58
2023-05-10T21:10:41.695Z,81.73
2023-05-10T21:13:09.537Z,81.70
2023-05-10T21:15:36.887Z,81.15
2023-05-10T21:18:04.779Z,80.91
2023-05-10T21:20:32.171Z,80.70
2023-05-10T21:22:59.602Z,80.51
2023-05-10T21:25:27.057Z,80.83
2023-05-10T21:27:54.500Z,80.87
2023-05-10T21:30:21.845Z,81.28
2023-05-10T21:32:49.196Z,80.69
2023-05-10T21:35:16.692Z,81.09
2023-05-10T21:37:43.996Z,80.61
2023-05-10T21:40:12.144Z,80.60
2023-05-10T21:42:39.518Z,80.83
2023-05-10T21:45:07.587Z,81.06
2023-05-10T21:47:34.908Z,81.05
2023-05-10T21:50:02.408Z,80.91
2023-05-10T21:52:31.257Z,80.85
2023-05-10T21:54:58.572Z,81.19
2023-05-10T21:57:25.825Z,81.37
2023-05-10T21:59:53.203Z,82.11
2023-05-10T22:02:20.631Z,81.87
2023-05-10T22:04:47.922Z,81.73
2023-05-10T22:07:17.210Z,81.30
2023-05-10T22:09:44.667Z,81.97
2023-05-10T22:12:13.163Z,81.38
2023-05-10T22:14:40.456Z,81.17
2023-05-10T22:17:08.026Z,81.14
2023-05-10T22:19:35.535Z,81.07
2023-05-10T22:22:02.796Z,80.94
2023-05-10T22:24:31.213Z,80.97
2023-05-10T22:26:58.655Z,80.88
2023-05-10T22:29:26.146Z,80.94
2023-05-10T22:31:53.526Z,81.21
2023-05-10T22:34:20.999Z,80.92
2023-05-10T22:36:49.955Z,80.94
2023-05-10T22:39:17.629Z,81.35
2023-05-10T22:41:44.919Z,81.37
2023-05-10T22:44:12.322Z,81.08
2023-05-10T22:46:39.658Z,81.82
2023-05-10T22:49:07.179Z,81.83
2023-05-10T22:51:35.037Z,82.23
2023-05-10T22:54:02.350Z,82.42
2023-05-10T22:56:29.673Z,82.44
2023-05-10T22:58:57.511Z,82.04
2023-05-10T23:01:25.125Z,82.15
2023-05-10T23:03:52.462Z,82.37
2023-05-10T23:06:19.764Z,83.17
2023-05-10T23:08:47.042Z,83.19
2023-05-10T23:11:14.421Z,82.83
2023-05-10T23:13:41.693Z,83.30
2023-05-10T23:16:09.662Z,83.67
2023-05-10T23:18:36.966Z,83.29
2023-05-10T23:21:04.232Z,82.52
2023-05-10T23:23:34.140Z,82.54
2023-05-10T23:26:02.018Z,82.71
2023-05-10T23:28:29.265Z,82.43
2023-05-10T23:30:59.958Z,82.34
2023-05-10T23:33:27.501Z,82.01
2023-05-10T23:35:55.467Z,81.92
2023-05-10T23:38:22.747Z,82.64
2023-05-10T23:40:50.826Z,82.80
2023-05-10T23:43:19.971Z,82.01
2023-05-10T23:46:06.810Z,81.96
2023-05-10T23:48:34.286Z,81.95
2023-05-10T23:51:01.667Z,82.38
2023-05-10T23:53:28.961Z,82.55
2023-05-10T23:55:56.538Z,82.98
2023-05-10T23:58:23.908Z,82.71
